Time;durP1;ratioP1;P1;durP2;ratioP2;P2;SDS_P1;SDS_P2;PMS_P1;PMS_P2;Temp;Humidity;BMP_temperature;BMP_pressure;BME280_temperature;BME280_humidity;BME280_pressure;Samples;Min_cycle;Max_cycle;Signal;HPM_P1;HPM_P2
2023/04/19 00:02:07;;;;;;;20.35;12.15;;;;;;;;;;5013122;28;20049;-58
2023/04/19 00:04:33;;;;;;;19.08;11.30;;;;;;;;;;5011737;28;20717;-58
2023/04/19 00:07:01;;;;;;;23.85;12.55;;;;;;;;;;5013921;28;20046;-58
2023/04/19 00:09:27;;;;;;;18.25;11.98;;;;;;;;;;5011306;28;21930;-58
2023/04/19 00:11:53;;;;;;;18.30;11.43;;;;;;;;;;5012479;28;20395;-58
2023/04/19 00:14:19;;;;;;;19.40;13.00;;;;;;;;;;5013393;28;21021;-58
2023/04/19 00:16:45;;;;;;;20.25;13.52;;;;;;;;;;5013381;28;20542;-58
2023/04/19 00:19:12;;;;;;;21.95;12.75;;;;;;;;;;5011862;28;20042;-58
2023/04/19 00:21:38;;;;;;;19.25;11.63;;;;;;;;;;5005859;28;20173;-58
2023/04/19 00:24:04;;;;;;;21.10;13.02;;;;;;;;;;5007406;28;20956;-58
2023/04/19 00:26:30;;;;;;;18.77;11.85;;;;;;;;;;5028737;28;20125;-58
2023/04/19 00:28:56;;;;;;;21.38;13.07;;;;;;;;;;5010186;28;20053;-58
2023/04/19 00:31:22;;;;;;;17.80;12.70;;;;;;;;;;5004504;28;20052;-58
2023/04/19 00:33:48;;;;;;;17.52;11.95;;;;;;;;;;5011049;28;20056;-58
2023/04/19 00:36:14;;;;;;;18.30;13.20;;;;;;;;;;5039250;28;20087;-58
2023/04/19 00:38:40;;;;;;;21.55;11.95;;;;;;;;;;5009864;28;20045;-59
2023/04/19 00:41:06;;;;;;;18.98;12.10;;;;;;;;;;5013533;28;20052;-58
2023/04/19 00:43:33;;;;;;;21.58;12.32;;;;;;;;;;5009642;28;20089;-58
2023/04/19 00:45:59;;;;;;;15.45;10.98;;;;;;;;;;5011820;28;20038;-58
2023/04/19 00:48:25;;;;;;;21.35;13.70;;;;;;;;;;5012099;28;20046;-58
2023/04/19 00:50:51;;;;;;;18.83;12.75;;;;;;;;;;5040881;28;21242;-58
2023/04/19 00:53:17;;;;;;;20.00;11.57;;;;;;;;;;5011664;28;20112;-58
2023/04/19 00:55:43;;;;;;;18.67;12.77;;;;;;;;;;5007664;28;20045;-58
2023/04/19 00:58:09;;;;;;;19.25;12.95;;;;;;;;;;5008730;28;20050;-58
2023/04/19 01:00:36;;;;;;;21.63;13.27;;;;;;;;;;5013313;28;20038;-58
2023/04/19 01:03:02;;;;;;;17.77;10.98;;;;;;;;;;5014554;28;20049;-58
2023/04/19 01:05:29;;;;;;;20.02;12.57;;;;;;;;;;5013234;28;20044;-58
2023/04/19 01:07:55;;;;;;;16.27;11.15;;;;;;;;;;5030656;28;20928;-58
2023/04/19 01:10:21;;;;;;;20.15;11.57;;;;;;;;;;5013720;28;20496;-58
2023/04/19 01:12:47;;;;;;;18.30;12.35;;;;;;;;;;5011798;28;20042;-58
2023/04/19 01:15:13;;;;;;;16.80;11.48;;;;;;;;;;5014144;28;20046;-58
2023/04/19 01:17:40;;;;;;;18.63;11.88;;;;;;;;;;5013765;28;20056;-58
2023/04/19 01:20:06;;;;;;;19.15;12.23;;;;;;;;;;5011134;28;20092;-58
2023/04/19 01:22:33;;;;;;;19.58;11.90;;;;;;;;;;5011970;28;20054;-58
2023/04/19 01:24:59;;;;;;;20.10;11.95;;;;;;;;;;5011329;28;20042;-58
2023/04/19 01:27:25;;;;;;;21.17;12.50;;;;;;;;;;5043119;28;20048;-58
2023/04/19 01:29:51;;;;;;;20.75;11.55;;;;;;;;;;5013034;28;21136;-58
2023/04/19 01:32:18;;;;;;;17.35;12.60;;;;;;;;;;5005325;28;20046;-58
2023/04/19 01:34:44;;;;;;;18.35;12.02;;;;;;;;;;5013675;28;20136;-58
2023/04/19 01:37:10;;;;;;;18.33;12.18;;;;;;;;;;5011849;28;20125;-58
2023/04/19 01:39:36;;;;;;;20.13;11.27;;;;;;;;;;5011140;28;20236;-58
2023/04/19 01:42:03;;;;;;;20.55;11.93;;;;;;;;;;5009552;28;20412;-59
2023/04/19 01:44:29;;;;;;;22.95;14.55;;;;;;;;;;5013195;28;20097;-58
2023/04/19 01:46:55;;;;;;;18.63;12.00;;;;;;;;;;5010318;28;20045;-58
2023/04/19 01:49:21;;;;;;;18.55;12.15;;;;;;;;;;5043566;28;20460;-58
2023/04/19 01:51:47;;;;;;;19.45;12.63;;;;;;;;;;5015046;28;20450;-58
2023/04/19 01:54:14;;;;;;;17.80;10.93;;;;;;;;;;5015552;28;20046;-58
2023/04/19 01:56:40;;;;;;;26.60;14.55;;;;;;;;;;5009883;28;20049;-59
2023/04/19 01:59:06;;;;;;;20.52;12.45;;;;;;;;;;5015985;28;20069;-58
2023/04/19 02:01:32;;;;;;;24.35;12.73;;;;;;;;;;5016592;28;20113;-58
2023/04/19 02:03:58;;;;;;;19.75;12.50;;;;;;;;;;5017080;28;20133;-59
2023/04/19 02:06:25;;;;;;;18.90;11.73;;;;;;;;;;5015775;28;20057;-58
2023/04/19 02:08:51;;;;;;;21.58;12.32;;;;;;;;;;5015705;28;20046;-58
2023/04/19 02:11:17;;;;;;;17.67;11.52;;;;;;;;;;5014863;28;21190;-58
2023/04/19 02:13:44;;;;;;;19.50;12.75;;;;;;;;;;5012665;28;20791;-58
2023/04/19 02:16:10;;;;;;;19.85;13.02;;;;;;;;;;5012443;28;22151;-58
2023/04/19 02:18:40;;;;;;;21.67;12.32;;;;;;;;;;5014115;28;20108;-58
2023/04/19 02:21:06;;;;;;;24.85;13.70;;;;;;;;;;5010988;28;20046;-58
2023/04/19 02:23:33;;;;;;;19.00;11.40;;;;;;;;;;5012266;28;20069;-58
2023/04/19 02:26:01;;;;;;;19.58;11.75;;;;;;;;;;5015191;28;20053;-58
2023/04/19 02:28:28;;;;;;;19.63;12.75;;;;;;;;;;5011362;28;20378;-58
2023/04/19 02:30:54;;;;;;;21.83;13.68;;;;;;;;;;5013703;28;20749;-58
2023/04/19 02:33:21;;;;;;;19.73;12.48;;;;;;;;;;5012384;28;20128;-58
2023/04/19 02:35:47;;;;;;;19.30;12.05;;;;;;;;;;5009699;28;20580;-58
2023/04/19 02:38:13;;;;;;;24.02;14.88;;;;;;;;;;5014410;28;20547;-58
2023/04/19 02:40:39;;;;;;;23.48;12.32;;;;;;;;;;5014289;28;20046;-58
2023/04/19 02:43:05;;;;;;;19.15;11.73;;;;;;;;;;5014367;28;20065;-58
2023/04/19 02:45:31;;;;;;;21.52;13.68;;;;;;;;;;5015244;28;20042;-58
2023/04/19 02:47:58;;;;;;;18.55;12.15;;;;;;;;;;5010286;28;20042;-58
2023/04/19 02:50:24;;;;;;;20.42;12.15;;;;;;;;;;5012465;28;20030;-58
2023/04/19 02:52:50;;;;;;;24.10;13.57;;;;;;;;;;5014980;28;20045;-58
2023/04/19 02:55:16;;;;;;;19.13;12.13;;;;;;;;;;5012695;28;20168;-58
2023/04/19 02:57:42;;;;;;;22.55;14.07;;;;;;;;;;5012915;28;20084;-58
2023/04/19 03:00:09;;;;;;;19.33;12.55;;;;;;;;;;5014327;28;20583;-58
2023/04/19 03:02:35;;;;;;;19.73;12.90;;;;;;;;;;5012511;28;21251;-58
2023/04/19 03:05:02;;;;;;;20.52;13.32;;;;;;;;;;5013510;28;20046;-58
2023/04/19 03:07:29;;;;;;;19.17;12.27;;;;;;;;;;5011569;28;20053;-58
2023/04/19 03:09:55;;;;;;;17.65;12.07;;;;;;;;;;5020731;28;20045;-58
2023/04/19 03:12:21;;;;;;;20.20;12.73;;;;;;;;;;5011134;28;20046;-58
2023/04/19 03:14:48;;;;;;;22.10;13.35;;;;;;;;;;5012780;28;20168;-58
2023/04/19 03:17:14;;;;;;;20.55;11.98;;;;;;;;;;5011067;28;20524;-59
2023/04/19 03:19:40;;;;;;;21.40;13.23;;;;;;;;;;5012977;28;20135;-58
2023/04/19 03:22:06;;;;;;;20.00;11.88;;;;;;;;;;5008393;28;20046;-58
2023/04/19 03:24:32;;;;;;;18.67;11.73;;;;;;;;;;5012412;28;20097;-58
2023/04/19 03:26:58;;;;;;;18.52;14.02;;;;;;;;;;5012179;28;20128;-58
2023/04/19 03:29:25;;;;;;;16.88;11.82;;;;;;;;;;5014123;28;20157;-58
2023/04/19 03:31:51;;;;;;;20.30;13.07;;;;;;;;;;5024569;28;20038;-59
2023/04/19 03:34:17;;;;;;;21.92;12.95;;;;;;;;;;5014027;28;20045;-58
2023/04/19 03:36:43;;;;;;;19.40;11.32;;;;;;;;;;5006130;28;20512;-58
2023/04/19 03:39:09;;;;;;;16.88;10.95;;;;;;;;;;5014519;28;20112;-58
2023/04/19 03:41:35;;;;;;;18.25;10.27;;;;;;;;;;5012532;28;20053;-60
2023/04/19 03:44:01;;;;;;;14.60;10.32;;;;;;;;;;5013196;28;20046;-58
2023/04/19 03:46:30;;;;;;;20.55;10.88;;;;;;;;;;5011209;28;20045;-58
2023/04/19 03:48:57;;;;;;;18.13;10.43;;;;;;;;;;5013306;28;20100;-58
2023/04/19 03:51:23;;;;;;;16.35;10.50;;;;;;;;;;5012673;28;20042;-58
2023/04/19 03:53:49;;;;;;;16.33;10.55;;;;;;;;;;5013929;28;20121;-59
2023/04/19 03:56:15;;;;;;;20.30;11.73;;;;;;;;;;5012730;28;20082;-59
2023/04/19 03:58:41;;;;;;;15.00;9.25;;;;;;;;;;5021492;28;20052;-59
2023/04/19 04:01:07;;;;;;;18.08;11.88;;;;;;;;;;5012901;28;20038;-59
2023/04/19 04:03:34;;;;;;;18.63;11.60;;;;;;;;;;5013897;28;20060;-58
2023/04/19 04:06:00;;;;;;;17.45;10.57;;;;;;;;;;5011896;28;20127;-59
2023/04/19 04:08:26;;;;;;;18.75;9.57;;;;;;;;;;5012353;28;20463;-59
2023/04/19 04:10:54;;;;;;;21.55;11.57;;;;;;;;;;5013288;28;20751;-58
2023/04/19 04:13:20;;;;;;;19.83;9.82;;;;;;;;;;5014071;28;20128;-59
2023/04/19 04:15:46;;;;;;;18.08;10.13;;;;;;;;;;5011073;28;20100;-59
2023/04/19 04:18:12;;;;;;;19.40;10.48;;;;;;;;;;5043795;28;20066;-58
2023/04/19 04:20:38;;;;;;;16.67;9.32;;;;;;;;;;5010592;28;20520;-59
2023/04/19 04:23:06;;;;;;;17.50;9.68;;;;;;;;;;5010269;28;20050;-58
2023/04/19 04:25:36;;;;;;;16.73;11.07;;;;;;;;;;5019965;28;20046;-58
2023/04/19 04:28:02;;;;;;;16.40;10.25;;;;;;;;;;5012618;28;20141;-58
2023/04/19 04:30:28;;;;;;;18.75;11.07;;;;;;;;;;5013096;28;20080;-58
2023/04/19 04:32:56;;;;;;;16.20;10.43;;;;;;;;;;5009542;28;20041;-58
2023/04/19 04:35:22;;;;;;;15.60;9.68;;;;;;;;;;5010502;28;20176;-58
2023/04/19 04:37:49;;;;;;;13.60;8.45;;;;;;;;;;5011240;28;20042;-59
2023/04/19 04:40:15;;;;;;;16.95;9.93;;;;;;;;;;5011684;28;20135;-59
2023/04/19 04:42:41;;;;;;;17.35;10.25;;;;;;;;;;5026640;28;21234;-58
2023/04/19 04:45:09;;;;;;;16.08;9.57;;;;;;;;;;5011668;28;20053;-59
2023/04/19 04:47:36;;;;;;;15.32;9.45;;;;;;;;;;5012569;28;20085;-58
2023/04/19 04:50:02;;;;;;;12.98;8.68;;;;;;;;;;5009943;28;20195;-59
2023/04/19 04:52:29;;;;;;;13.05;8.35;;;;;;;;;;5010615;28;20718;-59
2023/04/19 04:54:55;;;;;;;21.60;11.23;;;;;;;;;;5010699;28;20375;-59
2023/04/19 04:57:21;;;;;;;17.77;10.60;;;;;;;;;;5009797;28;20106;-59
2023/04/19 04:59:47;;;;;;;14.98;9.57;;;;;;;;;;5012385;28;20124;-58
2023/04/19 05:02:17;;;;;;;15.27;10.20;;;;;;;;;;5009450;28;20544;-60
2023/04/19 05:04:43;;;;;;;12.30;8.50;;;;;;;;;;5012969;28;20092;-58
2023/04/19 05:07:09;;;;;;;15.45;9.77;;;;;;;;;;5011453;28;20125;-59
2023/04/19 05:09:35;;;;;;;14.10;9.38;;;;;;;;;;5011161;28;20057;-59
2023/04/19 05:12:01;;;;;;;16.38;10.60;;;;;;;;;;5007912;28;20050;-58
2023/04/19 05:14:27;;;;;;;12.15;8.55;;;;;;;;;;5007969;28;20042;-58
2023/04/19 05:16:54;;;;;;;14.15;8.35;;;;;;;;;;5002373;28;20045;-59
2023/04/19 05:19:20;;;;;;;14.05;9.50;;;;;;;;;;5011528;28;20049;-59
2023/04/19 05:21:46;;;;;;;15.05;9.18;;;;;;;;;;5009755;28;20108;-58
2023/04/19 05:24:12;;;;;;;14.25;8.70;;;;;;;;;;5009584;28;20041;-58
2023/04/19 05:26:38;;;;;;;11.93;7.75;;;;;;;;;;5008691;28;20042;-58
2023/04/19 05:29:04;;;;;;;14.88;9.75;;;;;;;;;;5010768;28;20046;-58
2023/04/19 05:31:31;;;;;;;16.02;8.80;;;;;;;;;;5010531;28;20893;-58
2023/04/19 05:33:57;;;;;;;12.75;8.77;;;;;;;;;;5008400;28;20076;-58
2023/04/19 05:36:23;;;;;;;13.63;9.68;;;;;;;;;;5012151;28;20084;-59
2023/04/19 05:38:49;;;;;;;15.48;9.55;;;;;;;;;;5009115;28;20060;-59
2023/04/19 05:41:15;;;;;;;16.95;9.38;;;;;;;;;;5007442;28;20061;-58
2023/04/19 05:43:41;;;;;;;15.60;10.80;;;;;;;;;;5041999;28;20056;-59
2023/04/19 05:46:07;;;;;;;17.55;11.25;;;;;;;;;;5012016;28;20046;-58
2023/04/19 05:48:33;;;;;;;17.02;10.73;;;;;;;;;;5016144;28;20117;-58
2023/04/19 05:50:59;;;;;;;20.33;12.82;;;;;;;;;;5016157;28;20057;-58
2023/04/19 05:53:25;;;;;;;20.85;13.20;;;;;;;;;;5013921;28;20109;-59
2023/04/19 05:55:51;;;;;;;20.15;12.13;;;;;;;;;;5014033;28;20548;-58
2023/04/19 05:58:18;;;;;;;20.70;11.95;;;;;;;;;;5016675;28;20428;-59
2023/04/19 06:00:44;;;;;;;16.50;10.88;;;;;;;;;;5013964;28;20042;-58
2023/04/19 06:03:10;;;;;;;19.08;11.27;;;;;;;;;;5014713;28;20038;-58
2023/04/19 06:05:36;;;;;;;16.73;8.85;;;;;;;;;;5007547;28;20072;-59
2023/04/19 06:08:03;;;;;;;14.00;8.88;;;;;;;;;;5016268;28;20037;-59
2023/04/19 06:10:29;;;;;;;19.05;10.90;;;;;;;;;;5013166;28;20535;-58
2023/04/19 06:12:55;;;;;;;15.57;10.45;;;;;;;;;;5010343;28;20050;-58
2023/04/19 06:15:21;;;;;;;13.25;9.15;;;;;;;;;;5004696;28;20045;-58
2023/04/19 06:17:48;;;;;;;14.95;9.40;;;;;;;;;;5010459;28;20297;-58
2023/04/19 06:20:14;;;;;;;15.60;8.60;;;;;;;;;;5007387;28;20045;-58
2023/04/19 06:22:46;;;;;;;19.02;10.02;;;;;;;;;;5010817;28;20094;-58
2023/04/19 06:25:12;;;;;;;14.48;9.25;;;;;;;;;;5008414;28;20042;-58
2023/04/19 06:27:38;;;;;;;13.98;9.52;;;;;;;;;;5039088;28;20528;-58
2023/04/19 06:30:04;;;;;;;11.52;7.13;;;;;;;;;;5010424;28;20531;-58
2023/04/19 06:32:30;;;;;;;18.63;9.18;;;;;;;;;;5012492;28;20046;-58
2023/04/19 06:34:56;;;;;;;12.85;8.60;;;;;;;;;;5014978;28;20092;-58
2023/04/19 06:37:22;;;;;;;17.33;8.55;;;;;;;;;;5012132;28;20041;-58
2023/04/19 06:39:49;;;;;;;12.32;8.25;;;;;;;;;;5010801;28;21204;-58
2023/04/19 06:42:15;;;;;;;15.15;9.73;;;;;;;;;;5011893;28;20093;-58
2023/04/19 06:44:41;;;;;;;14.07;8.00;;;;;;;;;;5015140;28;20077;-58
2023/04/19 06:47:07;;;;;;;14.07;9.25;;;;;;;;;;5010195;28;20042;-58
2023/04/19 06:49:33;;;;;;;17.08;9.45;;;;;;;;;;5006668;28;21236;-58
2023/04/19 06:51:59;;;;;;;13.93;8.90;;;;;;;;;;5006667;28;20046;-58
2023/04/19 06:54:25;;;;;;;14.25;8.02;;;;;;;;;;5010643;28;20109;-58
2023/04/19 06:56:51;;;;;;;14.80;9.18;;;;;;;;;;5009694;28;20050;-58
2023/04/19 06:59:19;;;;;;;12.57;8.27;;;;;;;;;;5009822;28;20128;-58
2023/04/19 07:01:45;;;;;;;14.25;9.02;;;;;;;;;;5009570;28;20317;-59
2023/04/19 07:04:12;;;;;;;13.75;8.32;;;;;;;;;;5010046;28;20089;-58
2023/04/19 07:06:38;;;;;;;14.60;8.88;;;;;;;;;;5007650;28;20273;-57
2023/04/19 07:09:05;;;;;;;14.88;8.63;;;;;;;;;;5014359;28;20164;-57
2023/04/19 07:11:32;;;;;;;18.10;9.23;;;;;;;;;;5015007;28;20507;-57
2023/04/19 07:13:59;;;;;;;13.70;9.65;;;;;;;;;;5015156;28;20065;-57
2023/04/19 07:16:25;;;;;;;14.57;8.35;;;;;;;;;;5010282;28;20054;-57
2023/04/19 07:18:52;;;;;;;16.80;9.18;;;;;;;;;;5012825;28;20100;-57
2023/04/19 07:21:18;;;;;;;15.70;9.65;;;;;;;;;;5013001;28;20054;-57
2023/04/19 07:23:44;;;;;;;12.25;8.43;;;;;;;;;;5026654;28;20526;-57
2023/04/19 07:26:10;;;;;;;16.45;9.07;;;;;;;;;;5011955;28;20408;-57
2023/04/19 07:28:36;;;;;;;15.88;9.95;;;;;;;;;;5010631;28;20041;-58
2023/04/19 07:31:03;;;;;;;16.60;8.80;;;;;;;;;;5004616;28;20124;-58
2023/04/19 07:33:29;;;;;;;12.43;8.18;;;;;;;;;;5011415;28;20089;-57
2023/04/19 07:35:55;;;;;;;14.48;9.48;;;;;;;;;;5009854;28;20196;-57
2023/04/19 07:38:21;;;;;;;15.60;8.50;;;;;;;;;;5011123;28;20045;-58
2023/04/19 07:40:47;;;;;;;14.57;8.55;;;;;;;;;;5012492;28;20097;-57
2023/04/19 07:43:14;;;;;;;13.40;9.38;;;;;;;;;;5012882;28;20148;-57
2023/04/19 07:45:40;;;;;;;14.00;7.93;;;;;;;;;;5009902;28;20671;-57
2023/04/19 07:48:06;;;;;;;15.85;9.00;;;;;;;;;;5009591;28;20046;-57
2023/04/19 07:50:32;;;;;;;10.90;7.32;;;;;;;;;;5011097;28;20119;-57
2023/04/19 07:52:58;;;;;;;13.40;8.30;;;;;;;;;;5010861;28;20619;-57
2023/04/19 07:55:24;;;;;;;15.85;9.55;;;;;;;;;;5010585;28;20041;-57
2023/04/19 07:57:50;;;;;;;15.52;8.98;;;;;;;;;;5043330;28;20448;-58
2023/04/19 08:00:17;;;;;;;12.05;7.80;;;;;;;;;;5012130;28;20101;-58
2023/04/19 08:02:44;;;;;;;15.52;9.82;;;;;;;;;;5008729;28;20069;-57
2023/04/19 08:05:11;;;;;;;13.82;8.10;;;;;;;;;;5009817;28;20073;-58
2023/04/19 08:07:37;;;;;;;16.08;8.95;;;;;;;;;;5012322;28;20042;-58
2023/04/19 08:10:04;;;;;;;12.65;8.43;;;;;;;;;;5010449;28;20049;-58
2023/04/19 08:12:30;;;;;;;14.20;9.38;;;;;;;;;;5011605;28;20038;-58
2023/04/19 08:14:56;;;;;;;14.65;9.82;;;;;;;;;;5009000;28;20041;-58
2023/04/19 08:17:23;;;;;;;13.82;8.63;;;;;;;;;;5008521;28;20534;-57
2023/04/19 08:19:49;;;;;;;14.95;8.43;;;;;;;;;;5006384;28;20058;-58
2023/04/19 08:22:16;;;;;;;14.80;9.23;;;;;;;;;;5009727;28;20037;-57
2023/04/19 08:24:43;;;;;;;15.55;9.35;;;;;;;;;;5007942;28;20050;-58
2023/04/19 08:27:09;;;;;;;14.52;8.23;;;;;;;;;;5010821;28;20053;-58
2023/04/19 08:29:37;;;;;;;15.27;9.38;;;;;;;;;;5009539;28;20042;-58
2023/04/19 08:32:04;;;;;;;11.68;7.72;;;;;;;;;;5009703;28;20061;-57
2023/04/19 08:34:30;;;;;;;13.75;8.48;;;;;;;;;;5029303;28;20042;-57
2023/04/19 08:36:56;;;;;;;13.70;8.05;;;;;;;;;;5005371;28;20041;-57
2023/04/19 08:39:22;;;;;;;17.52;9.98;;;;;;;;;;5009844;28;20062;-57
2023/04/19 08:41:49;;;;;;;11.00;7.53;;;;;;;;;;5011242;28;20062;-57
2023/04/19 08:44:16;;;;;;;16.33;8.77;;;;;;;;;;5025818;28;20042;-57
2023/04/19 08:46:43;;;;;;;13.73;8.07;;;;;;;;;;5011576;28;20046;-57
2023/04/19 08:49:10;;;;;;;16.42;9.52;;;;;;;;;;5014994;28;20042;-58
2023/04/19 08:51:37;;;;;;;14.73;9.55;;;;;;;;;;5010112;28;20098;-57
2023/04/19 08:54:04;;;;;;;14.48;8.40;;;;;;;;;;5012213;28;20038;-58
2023/04/19 08:56:31;;;;;;;14.57;7.72;;;;;;;;;;5013944;28;20054;-58
2023/04/19 08:58:57;;;;;;;13.98;9.60;;;;;;;;;;5012815;28;20465;-57
2023/04/19 09:01:23;;;;;;;16.10;9.05;;;;;;;;;;5009999;28;20052;-58
2023/04/19 09:03:49;;;;;;;13.77;8.38;;;;;;;;;;5007038;28;20042;-57
2023/04/19 09:06:15;;;;;;;14.95;8.55;;;;;;;;;;5009646;28;21174;-58
2023/04/19 09:08:42;;;;;;;9.40;5.65;;;;;;;;;;5007646;28;20583;-58
2023/04/19 09:11:08;;;;;;;13.25;8.48;;;;;;;;;;5007269;28;20057;-57
2023/04/19 09:13:37;;;;;;;15.32;7.65;;;;;;;;;;5012710;28;20524;-57
2023/04/19 09:16:03;;;;;;;13.75;8.73;;;;;;;;;;5011773;28;20050;-58
2023/04/19 09:18:29;;;;;;;14.13;7.57;;;;;;;;;;5010352;28;20104;-57
2023/04/19 09:20:59;;;;;;;12.98;7.38;;;;;;;;;;5012091;28;20053;-58
2023/04/19 09:23:26;;;;;;;17.85;9.45;;;;;;;;;;5015114;28;20309;-59
2023/04/19 09:25:53;;;;;;;16.63;8.65;;;;;;;;;;5014980;28;20642;-59
2023/04/19 09:28:20;;;;;;;12.95;8.52;;;;;;;;;;5007473;28;20511;-58
2023/04/19 09:30:46;;;;;;;12.45;7.93;;;;;;;;;;5012949;28;20117;-58
2023/04/19 09:33:12;;;;;;;14.70;9.05;;;;;;;;;;5015496;28;20553;-59
2023/04/19 09:35:42;;;;;;;16.88;8.25;;;;;;;;;;5012612;28;20042;-58
2023/04/19 09:38:09;;;;;;;12.70;7.75;;;;;;;;;;5012897;28;20052;-58
2023/04/19 09:40:35;;;;;;;15.45;8.73;;;;;;;;;;5011020;28;20073;-58
2023/04/19 09:43:02;;;;;;;15.93;8.65;;;;;;;;;;5013233;28;20050;-59
2023/04/19 09:45:39;;;;;;;11.80;7.35;;;;;;;;;;5008205;28;20719;-58
2023/04/19 09:48:06;;;;;;;21.42;7.43;;;;;;;;;;5009298;28;20100;-58
2023/04/19 09:50:32;;;;;;;10.27;6.95;;;;;;;;;;5010479;28;20037;-58
2023/04/19 09:52:59;;;;;;;12.25;7.57;;;;;;;;;;5012649;28;20046;-58
2023/04/19 09:55:26;;;;;;;12.98;8.13;;;;;;;;;;5002948;28;20693;-58
2023/04/19 09:57:52;;;;;;;14.68;8.82;;;;;;;;;;5019228;28;20046;-58
2023/04/19 10:00:20;;;;;;;13.20;8.75;;;;;;;;;;5044709;28;20103;-58
2023/04/19 10:02:53;;;;;;;11.77;7.90;;;;;;;;;;5014266;28;20138;-59
2023/04/19 10:05:21;;;;;;;10.93;6.93;;;;;;;;;;5044476;28;20536;-59
2023/04/19 10:07:48;;;;;;;14.18;7.35;;;;;;;;;;5014924;28;20100;-59
2023/04/19 10:10:16;;;;;;;11.85;7.40;;;;;;;;;;5013549;28;20926;-59
2023/04/19 10:12:44;;;;;;;11.80;7.20;;;;;;;;;;5013943;28;20534;-59
2023/04/19 10:15:11;;;;;;;11.27;7.00;;;;;;;;;;5013931;28;20108;-59
2023/04/19 10:17:37;;;;;;;12.05;7.05;;;;;;;;;;5013124;28;20074;-59
2023/04/19 10:20:06;;;;;;;11.80;6.72;;;;;;;;;;5015748;28;21235;-59
2023/04/19 10:22:36;;;;;;;13.52;7.18;;;;;;;;;;5015675;28;20524;-59
2023/04/19 10:25:12;;;;;;;11.68;6.75;;;;;;;;;;5028485;28;20685;-59
2023/04/19 10:27:39;;;;;;;10.13;6.50;;;;;;;;;;5014413;28;20042;-59
2023/04/19 10:30:12;;;;;;;11.00;7.50;;;;;;;;;;5014772;28;20081;-59
2023/04/19 10:32:40;;;;;;;11.23;7.38;;;;;;;;;;5012534;28;20049;-59
2023/04/19 10:35:10;;;;;;;12.63;8.05;;;;;;;;;;5010824;28;20137;-59
2023/04/19 10:37:40;;;;;;;10.98;6.57;;;;;;;;;;5004525;28;20037;-59
2023/04/19 10:40:07;;;;;;;13.55;6.75;;;;;;;;;;5010890;28;20153;-59
2023/04/19 10:42:52;;;;;;;12.77;7.97;;;;;;;;;;5027109;28;20057;-61
2023/04/19 10:45:45;;;;;;;9.10;5.45;;;;;;;;;;5008906;28;20053;-59
2023/04/19 10:48:29;;;;;;;10.07;6.20;;;;;;;;;;5011320;28;20504;-59
2023/04/19 10:51:14;;;;;;;9.30;6.25;;;;;;;;;;5012571;28;20034;-59
2023/04/19 10:53:44;;;;;;;9.70;5.80;;;;;;;;;;5015460;28;20046;-59
2023/04/19 10:56:11;;;;;;;8.45;5.20;;;;;;;;;;5014985;28;20042;-60
2023/04/19 10:58:56;;;;;;;9.38;6.00;;;;;;;;;;5016464;28;20570;-59
2023/04/19 11:01:44;;;;;;;9.10;5.85;;;;;;;;;;5016657;28;20085;-59
2023/04/19 11:04:10;;;;;;;10.20;6.68;;;;;;;;;;5013633;28;20149;-59
2023/04/19 11:07:00;;;;;;;8.45;5.47;;;;;;;;;;5015520;28;20565;-60
2023/04/19 11:09:35;;;;;;;12.43;5.47;;;;;;;;;;5013998;28;20530;-59
2023/04/19 11:12:03;;;;;;;7.28;6.00;;;;;;;;;;5014787;28;20801;-59
2023/04/19 11:14:35;;;;;;;11.63;6.43;;;;;;;;;;5009741;28;20046;-59
2023/04/19 11:17:01;;;;;;;9.77;6.05;;;;;;;;;;5012485;28;20054;-59
2023/04/19 11:19:28;;;;;;;10.00;6.90;;;;;;;;;;5025563;28;20054;-60
2023/04/19 11:21:57;;;;;;;8.90;5.13;;;;;;;;;;5012491;28;20037;-59
2023/04/19 11:24:23;;;;;;;7.70;5.05;;;;;;;;;;5013392;28;20088;-59
2023/04/19 11:26:49;;;;;;;8.82;6.15;;;;;;;;;;5014602;28;20050;-59
2023/04/19 11:29:16;;;;;;;10.27;5.43;;;;;;;;;;5010503;28;20050;-59
2023/04/19 11:31:45;;;;;;;8.90;4.90;;;;;;;;;;5008961;28;20053;-59
2023/04/19 11:34:12;;;;;;;8.90;5.45;;;;;;;;;;5013348;28;20042;-59
2023/04/19 11:36:51;;;;;;;6.80;4.40;;;;;;;;;;5012091;28;20042;-59
2023/04/19 11:39:17;;;;;;;7.93;4.65;;;;;;;;;;5010725;28;20073;-59
2023/04/19 11:41:45;;;;;;;7.25;4.93;;;;;;;;;;5006331;28;20792;-60
2023/04/19 11:44:16;;;;;;;5.15;3.78;;;;;;;;;;5010182;28;20054;-58
2023/04/19 11:46:42;;;;;;;6.25;4.43;;;;;;;;;;5011749;28;20454;-59
2023/04/19 11:49:08;;;;;;;7.85;4.38;;;;;;;;;;5015533;28;20069;-59
2023/04/19 11:51:34;;;;;;;11.25;4.38;;;;;;;;;;5015306;28;21062;-59
2023/04/19 11:54:01;;;;;;;8.10;4.25;;;;;;;;;;5017332;28;20479;-59
2023/04/19 11:56:27;;;;;;;7.93;4.65;;;;;;;;;;5012890;28;20045;-59
2023/04/19 11:58:57;;;;;;;7.13;4.38;;;;;;;;;;5016240;28;20103;-59
2023/04/19 12:01:24;;;;;;;8.23;4.95;;;;;;;;;;5014449;28;20578;-58
2023/04/19 12:03:55;;;;;;;7.38;4.55;;;;;;;;;;5016295;28;20046;-59
2023/04/19 12:06:29;;;;;;;9.43;4.90;;;;;;;;;;5015106;28;20495;-59
2023/04/19 12:08:56;;;;;;;7.28;4.95;;;;;;;;;;5016030;28;20192;-59
2023/04/19 12:11:25;;;;;;;6.72;3.97;;;;;;;;;;5014904;28;20046;-59
2023/04/19 12:14:10;;;;;;;7.93;4.57;;;;;;;;;;5016556;28;20042;-59
2023/04/19 12:16:36;;;;;;;9.35;5.10;;;;;;;;;;5016069;28;20048;-59
2023/04/19 12:19:12;;;;;;;9.70;6.00;;;;;;;;;;5015973;28;20124;-59
2023/04/19 12:21:39;;;;;;;7.07;4.78;;;;;;;;;;5016259;28;20046;-59
2023/04/19 12:24:05;;;;;;;7.43;4.85;;;;;;;;;;5016093;28;20081;-59
2023/04/19 12:26:31;;;;;;;11.40;5.72;;;;;;;;;;5046998;28;20038;-59
2023/04/19 12:28:58;;;;;;;8.23;4.75;;;;;;;;;;5015121;28;20042;-59
2023/04/19 12:31:25;;;;;;;6.63;4.32;;;;;;;;;;5015716;28;20041;-59
2023/04/19 12:33:52;;;;;;;6.03;4.90;;;;;;;;;;5015202;28;20046;-59
2023/04/19 12:36:18;;;;;;;6.82;4.88;;;;;;;;;;5014229;28;20128;-59
2023/04/19 12:38:44;;;;;;;8.63;5.63;;;;;;;;;;5015936;28;20204;-59
2023/04/19 12:41:10;;;;;;;7.68;4.40;;;;;;;;;;5015191;28;20045;-59
2023/04/19 12:43:36;;;;;;;12.98;7.38;;;;;;;;;;5014119;28;20057;-59
2023/04/19 12:46:02;;;;;;;6.65;4.30;;;;;;;;;;5016364;28;20940;-59
2023/04/19 12:48:28;;;;;;;6.32;5.25;;;;;;;;;;5014819;28;20069;-58
2023/04/19 12:50:54;;;;;;;6.82;4.72;;;;;;;;;;5015667;28;20129;-58
2023/04/19 12:53:23;;;;;;;10.85;4.63;;;;;;;;;;5014580;28;20621;-58
2023/04/19 12:55:49;;;;;;;8.63;5.88;;;;;;;;;;5015189;28;20042;-59
2023/04/19 12:58:16;;;;;;;6.60;4.93;;;;;;;;;;5014512;28;20081;-59
2023/04/19 13:00:43;;;;;;;12.77;5.93;;;;;;;;;;5014770;28;20041;-59
2023/04/19 13:03:09;;;;;;;10.10;5.50;;;;;;;;;;5015000;28;20522;-58
2023/04/19 13:05:35;;;;;;;7.13;5.05;;;;;;;;;;5014761;28;20043;-59
2023/04/19 13:08:01;;;;;;;8.32;5.30;;;;;;;;;;5014896;28;20542;-59
2023/04/19 13:10:27;;;;;;;9.68;5.90;;;;;;;;;;5007331;28;20097;-59
2023/04/19 13:12:54;;;;;;;8.88;4.47;;;;;;;;;;5014307;28;20045;-59
2023/04/19 13:15:20;;;;;;;7.10;4.47;;;;;;;;;;5013618;28;20053;-60
2023/04/19 13:17:46;;;;;;;7.50;4.65;;;;;;;;;;5014371;28;20641;-59
2023/04/19 13:20:12;;;;;;;9.63;5.55;;;;;;;;;;5013408;28;20042;-59
2023/04/19 13:22:38;;;;;;;6.13;5.10;;;;;;;;;;5014124;28;20053;-59
2023/04/19 13:25:04;;;;;;;7.20;5.57;;;;;;;;;;5013521;28;20048;-59
2023/04/19 13:27:31;;;;;;;12.80;5.68;;;;;;;;;;5014973;28;20046;-59
2023/04/19 13:29:57;;;;;;;7.95;4.75;;;;;;;;;;5013461;28;20050;-59
2023/04/19 13:32:23;;;;;;;7.80;5.43;;;;;;;;;;5013814;28;20048;-59
2023/04/19 13:34:49;;;;;;;5.75;4.38;;;;;;;;;;5013758;28;20087;-59
2023/04/19 13:37:15;;;;;;;9.65;5.15;;;;;;;;;;5015386;28;20128;-59
2023/04/19 13:39:41;;;;;;;8.10;4.25;;;;;;;;;;5044866;28;20038;-59
2023/04/19 13:42:07;;;;;;;8.20;4.55;;;;;;;;;;5014052;28;20087;-59
2023/04/19 13:44:33;;;;;;;6.45;4.28;;;;;;;;;;5013939;28;20046;-59
2023/04/19 13:46:59;;;;;;;5.50;4.18;;;;;;;;;;5013455;28;20119;-58
2023/04/19 13:49:25;;;;;;;6.18;3.97;;;;;;;;;;5015002;28;20067;-59
2023/04/19 13:51:51;;;;;;;6.03;4.10;;;;;;;;;;5014197;28;20066;-59
2023/04/19 13:54:18;;;;;;;4.93;3.65;;;;;;;;;;5014740;28;20077;-59
2023/04/19 13:56:44;;;;;;;6.30;4.13;;;;;;;;;;5013968;28;20618;-59
2023/04/19 13:59:10;;;;;;;6.20;4.22;;;;;;;;;;5014211;28;21223;-60
2023/04/19 14:01:36;;;;;;;6.28;3.60;;;;;;;;;;5012181;28;21236;-59
2023/04/19 14:04:02;;;;;;;5.43;3.88;;;;;;;;;;5014177;28;20050;-59
2023/04/19 14:06:28;;;;;;;5.55;3.90;;;;;;;;;;5013508;28;20065;-59
2023/04/19 14:08:55;;;;;;;5.75;4.15;;;;;;;;;;5017655;28;20037;-59
2023/04/19 14:11:22;;;;;;;6.38;4.18;;;;;;;;;;5016365;28;20530;-59
2023/04/19 14:13:48;;;;;;;8.27;4.78;;;;;;;;;;5018450;28;20049;-59
2023/04/19 14:16:14;;;;;;;5.95;4.38;;;;;;;;;;5015427;28;20117;-58
2023/04/19 14:18:40;;;;;;;5.53;3.85;;;;;;;;;;5016574;28;20042;-59
2023/04/19 14:21:06;;;;;;;6.95;4.50;;;;;;;;;;5016661;28;20038;-59
2023/04/19 14:23:32;;;;;;;8.23;3.92;;;;;;;;;;5016705;28;21435;-59
2023/04/19 14:25:58;;;;;;;6.25;4.60;;;;;;;;;;5016826;28;20093;-59
2023/04/19 14:28:25;;;;;;;6.65;4.60;;;;;;;;;;5016835;28;20298;-59